sensor_id;sensor_type;location;lat;lon;timestamp;pressure;altitude;pressure_sealevel;temperature;humidity
79791;BME280;69278;52.220;5.172;2023-07-31T00:02:06;100930.19;;;17.41;83.13
79791;BME280;69278;52.220;5.172;2023-07-31T00:04:32;100950.22;;;17.60;83.05
79791;BME280;69278;52.220;5.172;2023-07-31T00:06:59;100924.16;;;17.47;83.39
79791;BME280;69278;52.220;5.172;2023-07-31T00:09:25;100946.06;;;17.57;84.14
79791;BME280;69278;52.220;5.172;2023-07-31T00:11:51;100945.34;;;17.63;83.78
79791;BME280;69278;52.220;5.172;2023-07-31T00:14:18;100939.84;;;17.65;83.88
79791;BME280;69278;52.220;5.172;2023-07-31T00:16:45;100926.44;;;17.58;84.39
79791;BME280;69278;52.220;5.172;2023-07-31T00:19:11;100928.00;;;17.67;84.49
79791;BME280;69278;52.220;5.172;2023-07-31T00:21:37;100930.38;;;17.62;86.12
79791;BME280;69278;52.220;5.172;2023-07-31T00:24:04;100910.81;;;17.55;85.43
79791;BME280;69278;52.220;5.172;2023-07-31T00:26:31;100919.00;;;17.68;85.87
79791;BME280;69278;52.220;5.172;2023-07-31T00:28:57;100919.94;;;17.75;85.82
79791;BME280;69278;52.220;5.172;2023-07-31T00:31:23;100931.69;;;17.81;85.60
79791;BME280;69278;52.220;5.172;2023-07-31T00:33:50;100924.34;;;17.83;85.61
79791;BME280;69278;52.220;5.172;2023-07-31T00:36:16;100920.22;;;17.80;85.67
79791;BME280;69278;52.220;5.172;2023-07-31T00:38:44;100905.81;;;17.75;85.82
79791;BME280;69278;52.220;5.172;2023-07-31T00:41:10;100891.66;;;17.74;85.89
79791;BME280;69278;52.220;5.172;2023-07-31T00:43:37;100913.69;;;17.83;85.98
79791;BME280;69278;52.220;5.172;2023-07-31T00:46:03;100905.25;;;17.79;85.88
79791;BME280;69278;52.220;5.172;2023-07-31T00:48:31;100903.78;;;17.77;85.93
79791;BME280;69278;52.220;5.172;2023-07-31T00:50:58;100915.16;;;17.85;86.20
79791;BME280;69278;52.220;5.172;2023-07-31T00:53:25;100920.97;;;17.89;85.68
79791;BME280;69278;52.220;5.172;2023-07-31T00:55:52;100920.69;;;17.84;86.00
79791;BME280;69278;52.220;5.172;2023-07-31T00:58:18;100919.84;;;17.83;85.79
79791;BME280;69278;52.220;5.172;2023-07-31T01:00:45;100932.72;;;17.80;85.71
79791;BME280;69278;52.220;5.172;2023-07-31T01:03:11;100920.94;;;17.74;85.79
79791;BME280;69278;52.220;5.172;2023-07-31T01:06:08;100928.31;;;17.72;85.92
79791;BME280;69278;52.220;5.172;2023-07-31T01:08:49;100902.50;;;17.50;85.76
79791;BME280;69278;52.220;5.172;2023-07-31T01:11:43;100896.34;;;17.50;86.15
79791;BME280;69278;52.220;5.172;2023-07-31T01:14:12;100912.44;;;17.56;85.47
79791;BME280;69278;52.220;5.172;2023-07-31T01:16:39;100898.00;;;17.51;85.75
79791;BME280;69278;52.220;5.172;2023-07-31T01:19:07;100922.41;;;17.62;85.61
79791;BME280;69278;52.220;5.172;2023-07-31T01:27:02;100905.47;;;17.55;85.58
79791;BME280;69278;52.220;5.172;2023-07-31T01:29:43;100905.00;;;17.52;85.58
79791;BME280;69278;52.220;5.172;2023-07-31T01:32:13;100894.22;;;17.45;85.25
79791;BME280;69278;52.220;5.172;2023-07-31T01:34:41;100908.97;;;17.56;85.44
79791;BME280;69278;52.220;5.172;2023-07-31T01:37:07;100884.56;;;17.44;85.27
79791;BME280;69278;52.220;5.172;2023-07-31T01:39:34;100870.03;;;17.32;85.62
79791;BME280;69278;52.220;5.172;2023-07-31T01:42:01;100908.78;;;17.57;85.89
79791;BME280;69278;52.220;5.172;2023-07-31T01:44:27;100891.53;;;17.53;85.64
79791;BME280;69278;52.220;5.172;2023-07-31T01:46:54;100878.25;;;17.45;85.70
79791;BME280;69278;52.220;5.172;2023-07-31T01:49:21;100884.19;;;17.55;85.91
79791;BME280;69278;52.220;5.172;2023-07-31T01:51:47;100895.41;;;17.65;86.12
79791;BME280;69278;52.220;5.172;2023-07-31T01:54:13;100878.72;;;17.49;86.50
79791;BME280;69278;52.220;5.172;2023-07-31T01:56:40;100892.75;;;17.65;86.50
79791;BME280;69278;52.220;5.172;2023-07-31T01:59:07;100892.06;;;17.63;87.09
79791;BME280;69278;52.220;5.172;2023-07-31T02:01:33;100859.72;;;17.52;86.62
79791;BME280;69278;52.220;5.172;2023-07-31T02:04:00;100880.22;;;17.66;86.64
79791;BME280;69278;52.220;5.172;2023-07-31T02:06:26;100869.13;;;17.62;86.52
79791;BME280;69278;52.220;5.172;2023-07-31T02:08:53;100875.75;;;17.66;86.66
79791;BME280;69278;52.220;5.172;2023-07-31T02:11:19;100851.38;;;17.55;86.56
79791;BME280;69278;52.220;5.172;2023-07-31T02:13:46;100855.16;;;17.60;86.48
79791;BME280;69278;52.220;5.172;2023-07-31T02:16:12;100857.44;;;17.63;86.75
79791;BME280;69278;52.220;5.172;2023-07-31T02:18:39;100839.25;;;17.52;86.52
79791;BME280;69278;52.220;5.172;2023-07-31T02:21:05;100846.53;;;17.58;86.45
79791;BME280;69278;52.220;5.172;2023-07-31T02:23:31;100851.75;;;17.66;86.28
79791;BME280;69278;52.220;5.172;2023-07-31T02:25:58;100848.28;;;17.66;86.37
79791;BME280;69278;52.220;5.172;2023-07-31T02:28:25;100853.78;;;17.64;86.52
79791;BME280;69278;52.220;5.172;2023-07-31T02:30:51;100850.47;;;17.62;86.22
79791;BME280;69278;52.220;5.172;2023-07-31T02:33:18;100860.13;;;17.63;86.29
79791;BME280;69278;52.220;5.172;2023-07-31T02:35:45;100856.09;;;17.67;86.38
79791;BME280;69278;52.220;5.172;2023-07-31T02:38:11;100836.25;;;17.55;86.44
79791;BME280;69278;52.220;5.172;2023-07-31T02:40:39;100847.06;;;17.68;86.42
79791;BME280;69278;52.220;5.172;2023-07-31T02:43:08;100840.03;;;17.61;86.18
79791;BME280;69278;52.220;5.172;2023-07-31T02:45:34;100836.91;;;17.72;86.10
79791;BME280;69278;52.220;5.172;2023-07-31T02:48:01;100831.78;;;17.70;86.12
79791;BME280;69278;52.220;5.172;2023-07-31T02:50:27;100838.72;;;17.71;85.87
79791;BME280;69278;52.220;5.172;2023-07-31T02:52:54;100828.06;;;17.71;86.09
79791;BME280;69278;52.220;5.172;2023-07-31T02:55:21;100823.78;;;17.70;85.90
79791;BME280;69278;52.220;5.172;2023-07-31T02:57:47;100826.25;;;17.72;85.73
79791;BME280;69278;52.220;5.172;2023-07-31T03:00:14;100810.25;;;17.57;85.64
79791;BME280;69278;52.220;5.172;2023-07-31T03:02:40;100839.75;;;17.70;85.55
79791;BME280;69278;52.220;5.172;2023-07-31T03:05:07;100827.09;;;17.72;85.64
79791;BME280;69278;52.220;5.172;2023-07-31T03:07:34;100817.88;;;17.60;85.44
79791;BME280;69278;52.220;5.172;2023-07-31T03:10:00;100834.44;;;17.70;85.56
79791;BME280;69278;52.220;5.172;2023-07-31T03:12:27;100825.59;;;17.70;85.46
79791;BME280;69278;52.220;5.172;2023-07-31T03:14:54;100821.19;;;17.62;85.40
79791;BME280;69278;52.220;5.172;2023-07-31T03:17:20;100830.75;;;17.71;85.34
79791;BME280;69278;52.220;5.172;2023-07-31T03:19:47;100840.19;;;17.74;85.28
79791;BME280;69278;52.220;5.172;2023-07-31T03:22:13;100828.91;;;17.72;85.23
79791;BME280;69278;52.220;5.172;2023-07-31T03:24:39;100812.16;;;17.63;85.15
79791;BME280;69278;52.220;5.172;2023-07-31T03:27:06;100815.13;;;17.68;85.06
79791;BME280;69278;52.220;5.172;2023-07-31T03:29:32;100820.28;;;17.70;84.84
79791;BME280;69278;52.220;5.172;2023-07-31T03:31:59;100824.22;;;17.74;84.77
79791;BME280;69278;52.220;5.172;2023-07-31T03:34:26;100819.94;;;17.73;84.65
79791;BME280;69278;52.220;5.172;2023-07-31T03:36:52;100828.56;;;17.75;84.61
79791;BME280;69278;52.220;5.172;2023-07-31T03:39:19;100810.19;;;17.65;84.46
79791;BME280;69278;52.220;5.172;2023-07-31T03:41:45;100812.56;;;17.60;84.09
79791;BME280;69278;52.220;5.172;2023-07-31T03:44:12;100824.59;;;17.71;84.06
79791;BME280;69278;52.220;5.172;2023-07-31T03:46:38;100809.16;;;17.66;83.73
79791;BME280;69278;52.220;5.172;2023-07-31T03:49:05;100799.88;;;17.62;83.74
79791;BME280;69278;52.220;5.172;2023-07-31T03:51:31;100802.19;;;17.65;83.28
79791;BME280;69278;52.220;5.172;2023-07-31T03:53:58;100809.44;;;17.71;83.31
79791;BME280;69278;52.220;5.172;2023-07-31T03:56:24;100799.81;;;17.70;83.14
79791;BME280;69278;52.220;5.172;2023-07-31T03:58:51;100788.88;;;17.65;83.24
79791;BME280;69278;52.220;5.172;2023-07-31T04:01:17;100797.94;;;17.71;83.38
79791;BME280;69278;52.220;5.172;2023-07-31T04:03:45;100789.16;;;17.70;83.19
79791;BME280;69278;52.220;5.172;2023-07-31T04:06:12;100780.97;;;17.57;83.29
79791;BME280;69278;52.220;5.172;2023-07-31T04:08:38;100795.84;;;17.66;83.25
79791;BME280;69278;52.220;5.172;2023-07-31T04:11:05;100785.09;;;17.60;83.34
79791;BME280;69278;52.220;5.172;2023-07-31T04:13:31;100788.88;;;17.65;83.42
79791;BME280;69278;52.220;5.172;2023-07-31T04:15:58;100759.19;;;17.54;83.74
79791;BME280;69278;52.220;5.172;2023-07-31T04:18:25;100769.56;;;17.63;83.83
79791;BME280;69278;52.220;5.172;2023-07-31T04:20:52;100769.56;;;17.63;83.93
79791;BME280;69278;52.220;5.172;2023-07-31T04:23:18;100771.22;;;17.64;83.99
79791;BME280;69278;52.220;5.172;2023-07-31T04:25:45;100776.19;;;17.67;84.36
79791;BME280;69278;52.220;5.172;2023-07-31T04:28:11;100749.84;;;17.58;84.01
79791;BME280;69278;52.220;5.172;2023-07-31T04:30:38;100771.50;;;17.69;84.29
79791;BME280;69278;52.220;5.172;2023-07-31T04:33:05;100784.00;;;17.69;84.06
79791;BME280;69278;52.220;5.172;2023-07-31T04:35:31;100759.66;;;17.57;84.20
79791;BME280;69278;52.220;5.172;2023-07-31T04:37:58;100780.50;;;17.68;84.10
79791;BME280;69278;52.220;5.172;2023-07-31T04:40:24;100765.47;;;17.61;84.04
79791;BME280;69278;52.220;5.172;2023-07-31T04:42:51;100767.28;;;17.60;84.14
79791;BME280;69278;52.220;5.172;2023-07-31T04:45:18;100763.72;;;17.53;84.03
79791;BME280;69278;52.220;5.172;2023-07-31T04:47:44;100774.63;;;17.58;84.18
79791;BME280;69278;52.220;5.172;2023-07-31T04:50:11;100766.66;;;17.58;84.21
79791;BME280;69278;52.220;5.172;2023-07-31T04:52:37;100748.41;;;17.47;84.50
79791;BME280;69278;52.220;5.172;2023-07-31T04:55:04;100757.00;;;17.57;84.34
79791;BME280;69278;52.220;5.172;2023-07-31T04:57:30;100747.72;;;17.53;84.62
79791;BME280;69278;52.220;5.172;2023-07-31T04:59:57;100752.88;;;17.55;84.69
79791;BME280;69278;52.220;5.172;2023-07-31T05:02:23;100749.38;;;17.54;84.72
79791;BME280;69278;52.220;5.172;2023-07-31T05:04:51;100730.13;;;17.44;84.83
79791;BME280;69278;52.220;5.172;2023-07-31T05:07:17;100751.38;;;17.52;84.78
79791;BME280;69278;52.220;5.172;2023-07-31T05:09:44;100724.09;;;17.36;84.83
79791;BME280;69278;52.220;5.172;2023-07-31T05:12:10;100751.38;;;17.52;84.85
79791;BME280;69278;52.220;5.172;2023-07-31T05:14:36;100742.94;;;17.49;84.77
79791;BME280;69278;52.220;5.172;2023-07-31T05:17:03;100747.72;;;17.53;85.01
79791;BME280;69278;52.220;5.172;2023-07-31T05:19:30;100738.25;;;17.51;84.98
79791;BME280;69278;52.220;5.172;2023-07-31T05:21:56;100714.91;;;17.38;84.77
79791;BME280;69278;52.220;5.172;2023-07-31T05:24:23;100745.13;;;17.45;85.00
79791;BME280;69278;52.220;5.172;2023-07-31T05:26:49;100728.78;;;17.34;85.14
79791;BME280;69278;52.220;5.172;2023-07-31T05:29:16;100734.38;;;17.39;85.27
79791;BME280;69278;52.220;5.172;2023-07-31T05:31:43;100719.41;;;17.38;85.07
79791;BME280;69278;52.220;5.172;2023-07-31T05:34:09;100719.97;;;17.33;85.46
79791;BME280;69278;52.220;5.172;2023-07-31T05:36:35;100710.69;;;17.29;85.49
79791;BME280;69278;52.220;5.172;2023-07-31T05:39:02;100720.31;;;17.30;85.43
79791;BME280;69278;52.220;5.172;2023-07-31T05:41:33;100707.00;;;17.30;85.51
79791;BME280;69278;52.220;5.172;2023-07-31T05:44:00;100713.81;;;17.33;85.46
79791;BME280;69278;52.220;5.172;2023-07-31T05:46:27;100700.03;;;17.29;85.57
79791;BME280;69278;52.220;5.172;2023-07-31T05:48:53;100704.34;;;17.30;85.66
79791;BME280;69278;52.220;5.172;2023-07-31T05:51:20;100684.59;;;17.24;85.60
79791;BME280;69278;52.220;5.172;2023-07-31T05:53:46;100702.44;;;17.39;85.91
79791;BME280;69278;52.220;5.172;2023-07-31T05:56:13;100660.47;;;17.11;85.70
79791;BME280;69278;52.220;5.172;2023-07-31T05:58:39;100694.25;;;17.40;85.70
79791;BME280;69278;52.220;5.172;2023-07-31T06:01:05;100697.28;;;17.37;85.75
79791;BME280;69278;52.220;5.172;2023-07-31T06:03:32;100697.09;;;17.39;85.71
79791;BME280;69278;52.220;5.172;2023-07-31T06:05:59;100692.16;;;17.36;85.78
79791;BME280;69278;52.220;5.172;2023-07-31T06:08:26;100691.13;;;17.37;85.70
79791;BME280;69278;52.220;5.172;2023-07-31T06:10:52;100679.66;;;17.36;85.85
79791;BME280;69278;52.220;5.172;2023-07-31T06:13:19;100684.59;;;17.39;85.78
79791;BME280;69278;52.220;5.172;2023-07-31T06:15:45;100678.28;;;17.40;85.94
79791;BME280;69278;52.220;5.172;2023-07-31T06:18:12;100677.09;;;17.43;85.89
79791;BME280;69278;52.220;5.172;2023-07-31T06:20:39;100663.31;;;17.39;85.96
79791;BME280;69278;52.220;5.172;2023-07-31T06:23:06;100672.88;;;17.48;85.80
79791;BME280;69278;52.220;5.172;2023-07-31T06:25:33;100653.47;;;17.40;85.85
79791;BME280;69278;52.220;5.172;2023-07-31T06:27:59;100663.84;;;17.49;85.89
79791;BME280;69278;52.220;5.172;2023-07-31T06:30:26;100671.84;;;17.49;85.97
79791;BME280;69278;52.220;5.172;2023-07-31T06:32:52;100659.56;;;17.48;85.92
79791;BME280;69278;52.220;5.172;2023-07-31T06:35:19;100663.16;;;17.55;85.96
79791;BME280;69278;52.220;5.172;2023-07-31T06:37:45;100646.88;;;17.50;86.07
79791;BME280;69278;52.220;5.172;2023-07-31T06:40:12;100666.44;;;17.57;85.95
79791;BME280;69278;52.220;5.172;2023-07-31T06:42:39;100654.97;;;17.57;85.92
79791;BME280;69278;52.220;5.172;2023-07-31T06:45:06;100661.75;;;17.59;86.23
79791;BME280;69278;52.220;5.172;2023-07-31T06:47:33;100626.78;;;17.48;86.16
79791;BME280;69278;52.220;5.172;2023-07-31T06:49:59;100606.13;;;17.35;86.36
79791;BME280;69278;52.220;5.172;2023-07-31T06:52:26;100574.41;;;17.19;86.09
79791;BME280;69278;52.220;5.172;2023-07-31T06:55:03;100589.53;;;17.33;86.64
79791;BME280;69278;52.220;5.172;2023-07-31T06:57:30;100636.22;;;17.65;86.47
79791;BME280;69278;52.220;5.172;2023-07-31T06:59:56;100649.34;;;17.66;86.56
79791;BME280;69278;52.220;5.172;2023-07-31T07:02:23;100630.72;;;17.66;86.38
79791;BME280;69278;52.220;5.172;2023-07-31T07:04:49;100621.81;;;17.59;86.60
79791;BME280;69278;52.220;5.172;2023-07-31T07:07:16;100631.34;;;17.68;86.79
79791;BME280;69278;52.220;5.172;2023-07-31T07:09:43;100609.34;;;17.60;86.57
79791;BME280;69278;52.220;5.172;2023-07-31T07:12:09;100619.69;;;17.69;86.53
79791;BME280;69278;52.220;5.172;2023-07-31T07:14:36;100627.56;;;17.77;86.79
79791;BME280;69278;52.220;5.172;2023-07-31T07:17:02;100624.19;;;17.69;86.69
79791;BME280;69278;52.220;5.172;2023-07-31T07:19:30;100568.13;;;17.41;86.65
79791;BME280;69278;52.220;5.172;2023-07-31T07:21:56;100630.69;;;17.81;86.55
79791;BME280;69278;52.220;5.172;2023-07-31T07:24:23;100636.19;;;17.79;86.72
79791;BME280;69278;52.220;5.172;2023-07-31T07:26:49;100633.34;;;17.81;86.84
79791;BME280;69278;52.220;5.172;2023-07-31T07:29:16;100638.50;;;17.82;86.85
79791;BME280;69278;52.220;5.172;2023-07-31T07:31:42;100640.75;;;17.85;86.48
79791;BME280;69278;52.220;5.172;2023-07-31T07:34:09;100632.75;;;17.85;86.65
79791;BME280;69278;52.220;5.172;2023-07-31T07:36:35;100622.94;;;17.86;86.67
79791;BME280;69278;52.220;5.172;2023-07-31T07:39:02;100629.09;;;17.86;86.87
79791;BME280;69278;52.220;5.172;2023-07-31T07:41:29;100613.44;;;17.77;86.82
79791;BME280;69278;52.220;5.172;2023-07-31T07:43:55;100632.03;;;17.92;86.89
79791;BME280;69278;52.220;5.172;2023-07-31T07:46:22;100627.97;;;17.96;87.10
79791;BME280;69278;52.220;5.172;2023-07-31T07:48:49;100618.34;;;17.95;87.09
79791;BME280;69278;52.220;5.172;2023-07-31T07:51:15;100618.97;;;17.97;87.20
79791;BME280;69278;52.220;5.172;2023-07-31T07:53:42;100624.56;;;18.02;87.20
79791;BME280;69278;52.220;5.172;2023-07-31T07:56:08;100617.38;;;18.02;87.28
79791;BME280;69278;52.220;5.172;2023-07-31T07:58:35;100596.25;;;17.79;87.49
79791;BME280;69278;52.220;5.172;2023-07-31T08:01:01;100623.72;;;18.01;87.44
79791;BME280;69278;52.220;5.172;2023-07-31T08:03:28;100621.50;;;18.05;87.58
79791;BME280;69278;52.220;5.172;2023-07-31T08:06:01;100587.16;;;17.95;87.73
79791;BME280;69278;52.220;5.172;2023-07-31T08:08:28;100591.13;;;17.99;87.57
79791;BME280;69278;52.220;5.172;2023-07-31T08:10:54;100614.00;;;18.15;87.74
79791;BME280;69278;52.220;5.172;2023-07-31T08:13:21;100597.50;;;18.05;87.76
79791;BME280;69278;52.220;5.172;2023-07-31T08:15:47;100610.72;;;18.13;87.98
79791;BME280;69278;52.220;5.172;2023-07-31T08:18:13;100588.97;;;18.09;88.12
79791;BME280;69278;52.220;5.172;2023-07-31T08:20:40;100614.00;;;18.15;88.07
79791;BME280;69278;52.220;5.172;2023-07-31T08:23:07;100609.31;;;18.17;87.97
79791;BME280;69278;52.220;5.172;2023-07-31T08:25:37;100607.56;;;18.24;88.00
79791;BME280;69278;52.220;5.172;2023-07-31T08:28:04;100605.69;;;18.24;87.90
79791;BME280;69278;52.220;5.172;2023-07-31T08:30:32;100599.56;;;18.24;88.14
79791;BME280;69278;52.220;5.172;2023-07-31T08:32:59;100596.22;;;18.22;88.06
79791;BME280;69278;52.220;5.172;2023-07-31T08:35:26;100584.31;;;18.18;87.75
79791;BME280;69278;52.220;5.172;2023-07-31T08:37:56;100574.03;;;18.15;88.00
79791;BME280;69278;52.220;5.172;2023-07-31T08:40:22;100601.94;;;18.40;88.05
79791;BME280;69278;52.220;5.172;2023-07-31T08:42:52;100598.53;;;18.46;87.83
79791;BME280;69278;52.220;5.172;2023-07-31T08:45:20;100599.97;;;18.48;87.77
79791;BME280;69278;52.220;5.172;2023-07-31T08:47:51;100591.53;;;18.45;87.92
79791;BME280;69278;52.220;5.172;2023-07-31T08:50:19;100593.84;;;18.48;87.75
79791;BME280;69278;52.220;5.172;2023-07-31T08:52:47;100592.59;;;18.50;87.86
79791;BME280;69278;52.220;5.172;2023-07-31T08:55:14;100595.09;;;18.52;87.83
79791;BME280;69278;52.220;5.172;2023-07-31T08:57:42;100583.00;;;18.56;87.98
79791;BME280;69278;52.220;5.172;2023-07-31T09:00:10;100588.59;;;18.61;87.75
79791;BME280;69278;52.220;5.172;2023-07-31T09:05:38;100593.53;;;18.64;87.72
79791;BME280;69278;52.220;5.172;2023-07-31T09:08:09;100583.63;;;18.58;87.90
79791;BME280;69278;52.220;5.172;2023-07-31T09:10:43;100580.97;;;18.58;87.90
79791;BME280;69278;52.220;5.172;2023-07-31T09:13:13;100605.09;;;18.71;87.88
79791;BME280;69278;52.220;5.172;2023-07-31T09:15:41;100599.13;;;18.69;87.91
79791;BME280;69278;52.220;5.172;2023-07-31T09:18:09;100592.75;;;18.70;88.02
79791;BME280;69278;52.220;5.172;2023-07-31T09:20:35;100596.44;;;18.69;88.09
79791;BME280;69278;52.220;5.172;2023-07-31T09:23:07;100561.06;;;18.54;87.68
79791;BME280;69278;52.220;5.172;2023-07-31T09:25:35;100564.09;;;18.51;87.89
79791;BME280;69278;52.220;5.172;2023-07-31T09:28:07;100565.16;;;18.57;87.97
79791;BME280;69278;52.220;5.172;2023-07-31T09:30:49;100583.75;;;18.71;88.06
79791;BME280;69278;52.220;5.172;2023-07-31T09:33:18;100543.06;;;18.41;88.29
79791;BME280;69278;52.220;5.172;2023-07-31T09:35:45;100581.28;;;18.70;88.10
79791;BME280;69278;52.220;5.172;2023-07-31T09:38:13;100580.06;;;18.72;88.21
79791;BME280;69278;52.220;5.172;2023-07-31T09:40:43;100566.41;;;18.61;88.14
79791;BME280;69278;52.220;5.172;2023-07-31T09:43:11;100556.97;;;18.58;88.12
79791;BME280;69278;52.220;5.172;2023-07-31T09:45:40;100568.91;;;18.62;88.06
79791;BME280;69278;52.220;5.172;2023-07-31T09:48:15;100583.13;;;18.69;88.57
79791;BME280;69278;52.220;5.172;2023-07-31T09:50:47;100574.25;;;18.62;88.26
79791;BME280;69278;52.220;5.172;2023-07-31T09:53:15;100586.03;;;18.74;88.35
79791;BME280;69278;52.220;5.172;2023-07-31T09:55:42;100571.56;;;18.62;88.41
79791;BME280;69278;52.220;5.172;2023-07-31T09:58:11;100532.63;;;18.40;88.80
79791;BME280;69278;52.220;5.172;2023-07-31T10:00:38;100571.03;;;18.73;88.54
79791;BME280;69278;52.220;5.172;2023-07-31T10:03:07;100554.94;;;18.60;88.49
79791;BME280;69278;52.220;5.172;2023-07-31T10:05:36;100563.63;;;18.69;88.47
79791;BME280;69278;52.220;5.172;2023-07-31T10:08:06;100557.44;;;18.68;88.24
79791;BME280;69278;52.220;5.172;2023-07-31T10:10:33;100574.63;;;18.87;88.26
79791;BME280;69278;52.220;5.172;2023-07-31T10:13:01;100571.19;;;18.99;87.57
79791;BME280;69278;52.220;5.172;2023-07-31T10:15:28;100570.19;;;19.07;87.44
79791;BME280;69278;52.220;5.172;2023-07-31T10:17:56;100554.00;;;19.08;86.72
79791;BME280;69278;52.220;5.172;2023-07-31T10:20:24;100580.34;;;19.25;86.33
79791;BME280;69278;52.220;5.172;2023-07-31T10:22:52;100575.00;;;19.25;86.40
79791;BME280;69278;52.220;5.172;2023-07-31T10:25:21;100585.22;;;19.14;87.20
79791;BME280;69278;52.220;5.172;2023-07-31T10:27:48;100580.69;;;19.08;87.26
79791;BME280;69278;52.220;5.172;2023-07-31T10:30:17;100581.69;;;19.07;87.39
79791;BME280;69278;52.220;5.172;2023-07-31T10:32:46;100577.38;;;19.06;87.33
79791;BME280;69278;52.220;5.172;2023-07-31T10:35:17;100576.16;;;19.09;87.36
79791;BME280;69278;52.220;5.172;2023-07-31T10:37:44;100565.94;;;19.19;87.35
79791;BME280;69278;52.220;5.172;2023-07-31T10:40:12;100563.09;;;19.27;86.59
79791;BME280;69278;52.220;5.172;2023-07-31T10:45:14;100565.28;;;19.45;85.23
79791;BME280;69278;52.220;5.172;2023-07-31T10:47:49;100572.47;;;19.51;85.32
79791;BME280;69278;52.220;5.172;2023-07-31T10:50:21;100526.13;;;19.24;84.85
79791;BME280;69278;52.220;5.172;2023-07-31T10:52:50;100579.25;;;19.53;84.68
79791;BME280;69278;52.220;5.172;2023-07-31T10:55:38;100550.38;;;19.36;84.42
79791;BME280;69278;52.220;5.172;2023-07-31T10:58:11;100539.69;;;19.23;84.78
79791;BME280;69278;52.220;5.172;2023-07-31T11:00:39;100570.59;;;19.45;84.78
79791;BME280;69278;52.220;5.172;2023-07-31T11:03:12;100538.88;;;19.29;85.10
79791;BME280;69278;52.220;5.172;2023-07-31T11:05:52;100582.13;;;19.52;84.88
79791;BME280;69278;52.220;5.172;2023-07-31T11:08:25;100576.19;;;19.56;84.65
79791;BME280;69278;52.220;5.172;2023-07-31T11:11:06;100567.75;;;19.53;85.06
79791;BME280;69278;52.220;5.172;2023-07-31T11:16:10;100565.28;;;19.58;84.51
79791;BME280;69278;52.220;5.172;2023-07-31T11:18:41;100529.72;;;19.44;84.53
79791;BME280;69278;52.220;5.172;2023-07-31T11:21:12;100567.41;;;19.75;84.69
79791;BME280;69278;52.220;5.172;2023-07-31T11:23:39;100538.78;;;19.56;85.04
79791;BME280;69278;52.220;5.172;2023-07-31T11:26:06;100564.91;;;19.67;85.35
79791;BME280;69278;52.220;5.172;2023-07-31T11:28:34;100561.78;;;19.57;85.46
79791;BME280;69278;52.220;5.172;2023-07-31T11:31:02;100578.44;;;19.53;85.68
79791;BME280;69278;52.220;5.172;2023-07-31T11:33:29;100555.44;;;19.52;85.89
79791;BME280;69278;52.220;5.172;2023-07-31T11:35:56;100559.69;;;19.40;85.67
79791;BME280;69278;52.220;5.172;2023-07-31T11:38:24;100563.00;;;19.48;86.10
79791;BME280;69278;52.220;5.172;2023-07-31T11:40:52;100551.25;;;19.43;86.34
79791;BME280;69278;52.220;5.172;2023-07-31T11:43:20;100544.44;;;19.34;86.43
79791;BME280;69278;52.220;5.172;2023-07-31T11:45:52;100561.94;;;19.43;86.71
79791;BME280;69278;52.220;5.172;2023-07-31T11:48:24;100560.28;;;19.35;86.80
79791;BME280;69278;52.220;5.172;2023-07-31T11:50:51;100552.44;;;19.34;86.89
79791;BME280;69278;52.220;5.172;2023-07-31T11:53:24;100546.91;;;19.35;87.24
79791;BME280;69278;52.220;5.172;2023-07-31T11:55:51;100559.88;;;19.38;87.10
79791;BME280;69278;52.220;5.172;2023-07-31T11:58:19;100545.47;;;19.33;87.11
79791;BME280;69278;52.220;5.172;2023-07-31T12:00:46;100558.88;;;19.46;87.53
79791;BME280;69278;52.220;5.172;2023-07-31T12:03:13;100563.84;;;19.49;87.32
79791;BME280;69278;52.220;5.172;2023-07-31T12:05:40;100552.53;;;19.47;87.26
79791;BME280;69278;52.220;5.172;2023-07-31T12:08:11;100550.25;;;19.44;87.32
79791;BME280;69278;52.220;5.172;2023-07-31T12:10:38;100561.16;;;19.42;87.22
79791;BME280;69278;52.220;5.172;2023-07-31T12:13:09;100550.34;;;19.23;87.12
79791;BME280;69278;52.220;5.172;2023-07-31T12:15:43;100563.50;;;19.31;87.16
79791;BME280;69278;52.220;5.172;2023-07-31T12:18:12;100518.25;;;19.09;87.36
79791;BME280;69278;52.220;5.172;2023-07-31T12:20:49;100568.72;;;19.39;87.21
79791;BME280;69278;52.220;5.172;2023-07-31T12:23:20;100556.41;;;19.38;87.34
79791;BME280;69278;52.220;5.172;2023-07-31T12:26:10;100535.56;;;19.27;87.21
79791;BME280;69278;52.220;5.172;2023-07-31T12:31:15;100540.94;;;19.33;87.27
79791;BME280;69278;52.220;5.172;2023-07-31T12:33:44;100525.78;;;19.40;87.42
79791;BME280;69278;52.220;5.172;2023-07-31T12:36:13;100527.66;;;19.46;87.43
79791;BME280;69278;52.220;5.172;2023-07-31T12:38:41;100493.28;;;19.30;87.67
79791;BME280;69278;52.220;5.172;2023-07-31T12:41:08;100534.06;;;19.58;87.52
79791;BME280;69278;52.220;5.172;2023-07-31T12:43:35;100524.81;;;19.54;87.52
79791;BME280;69278;52.220;5.172;2023-07-31T12:46:03;100525.22;;;19.58;87.26
79791;BME280;69278;52.220;5.172;2023-07-31T12:48:29;100531.19;;;19.60;87.21
79791;BME280;69278;52.220;5.172;2023-07-31T12:50:56;100517.63;;;19.61;87.20
79791;BME280;69278;52.220;5.172;2023-07-31T12:53:22;100493.38;;;19.50;87.02
79791;BME280;69278;52.220;5.172;2023-07-31T12:55:49;100518.66;;;19.67;87.00
79791;BME280;69278;52.220;5.172;2023-07-31T12:58:16;100509.00;;;19.66;86.99
79791;BME280;69278;52.220;5.172;2023-07-31T13:00:42;100490.09;;;19.54;87.02
79791;BME280;69278;52.220;5.172;2023-07-31T13:03:09;100499.75;;;19.62;87.00
79791;BME280;69278;52.220;5.172;2023-07-31T13:05:35;100520.53;;;19.66;86.42
79791;BME280;69278;52.220;5.172;2023-07-31T13:08:02;100519.91;;;19.77;86.75
79791;BME280;69278;52.220;5.172;2023-07-31T13:10:31;100516.41;;;19.77;86.80